createdAt,value
2018-06-04T00:00:07.361Z,23.32
2018-06-04T00:01:11.743Z,24.50
2018-06-04T00:02:16.044Z,23.30
2018-06-04T00:03:20.497Z,22.20
2018-06-04T00:04:25.003Z,23.98
2018-06-04T00:05:29.359Z,22.70
2018-06-04T00:06:33.738Z,22.85
2018-06-04T00:07:37.979Z,22.27
2018-06-04T00:08:42.305Z,23.55
2018-06-04T00:09:46.619Z,23.42
2018-06-04T00:10:51.001Z,24.37
2018-06-04T00:11:55.228Z,22.95
2018-06-04T00:12:59.423Z,23.18
2018-06-04T00:14:03.689Z,23.18
2018-06-04T00:15:07.918Z,24.57
2018-06-04T00:16:12.230Z,24.67
2018-06-04T00:17:16.434Z,23.10
2018-06-04T00:18:20.728Z,24.18
2018-06-04T00:19:25.003Z,25.40
2018-06-04T00:20:29.251Z,25.62
2018-06-04T00:21:33.468Z,25.20
2018-06-04T00:22:37.646Z,24.80
2018-06-04T00:23:41.872Z,24.12
2018-06-04T00:24:46.091Z,23.62
2018-06-04T00:25:50.309Z,23.95
2018-06-04T00:26:54.560Z,24.32
2018-06-04T00:27:58.781Z,24.75
2018-06-04T00:29:03.133Z,26.50
2018-06-04T00:30:07.389Z,25.02
2018-06-04T00:31:11.653Z,25.12
2018-06-04T00:32:16.042Z,25.55
2018-06-04T00:33:20.585Z,25.32
2018-06-04T00:34:24.832Z,24.35
2018-06-04T00:35:29.325Z,25.43
2018-06-04T00:36:33.626Z,24.85
2018-06-04T00:37:38.199Z,24.25
2018-06-04T00:38:42.460Z,24.60
2018-06-04T00:39:46.908Z,25.02
2018-06-04T00:40:51.151Z,25.72
2018-06-04T00:41:55.469Z,23.87
2018-06-04T00:42:59.856Z,24.90
2018-06-04T00:44:04.166Z,25.65
2018-06-04T00:45:08.479Z,23.65
2018-06-04T00:46:12.768Z,25.45
2018-06-04T00:47:17.067Z,25.65
2018-06-04T00:48:21.585Z,25.75
2018-06-04T00:49:25.895Z,25.72
2018-06-04T00:50:30.183Z,25.57
2018-06-04T00:51:34.429Z,26.35
2018-06-04T00:52:38.749Z,27.25
2018-06-04T00:53:43.044Z,24.72
2018-06-04T00:54:47.655Z,25.17
2018-06-04T00:56:02.613Z,24.70
2018-06-04T00:57:06.901Z,25.52
2018-06-04T00:58:11.570Z,24.98
2018-06-04T00:59:16.111Z,24.85
2018-06-04T01:00:21.183Z,25.65
2018-06-04T01:01:25.411Z,26.00
2018-06-04T01:02:29.680Z,24.40
2018-06-04T01:03:35.076Z,24.90
2018-06-04T01:04:39.364Z,23.75
2018-06-04T01:05:43.619Z,26.07
2018-06-04T01:06:47.863Z,24.30
2018-06-04T01:07:52.079Z,26.80
2018-06-04T01:08:56.533Z,25.32
2018-06-04T01:10:00.881Z,26.90
2018-06-04T01:11:05.385Z,25.50
2018-06-04T01:12:09.768Z,26.25
2018-06-04T01:13:14.052Z,25.40
2018-06-04T01:14:18.502Z,26.82
2018-06-04T01:15:23.000Z,26.87
2018-06-04T01:16:27.224Z,28.02
2018-06-04T01:17:31.456Z,27.67
2018-06-04T01:18:35.747Z,27.62
2018-06-04T01:19:39.996Z,26.65
2018-06-04T01:20:44.252Z,28.00
2018-06-04T01:21:48.496Z,26.75
2018-06-04T01:22:53.286Z,27.22
2018-06-04T01:23:57.941Z,27.52
2018-06-04T01:25:02.248Z,26.52
2018-06-04T01:26:06.772Z,27.17
2018-06-04T01:27:11.162Z,29.00
2018-06-04T01:28:15.390Z,26.48
2018-06-04T01:29:19.645Z,26.95
2018-06-04T01:30:24.209Z,27.80
2018-06-04T01:31:28.744Z,27.48
2018-06-04T01:32:32.996Z,27.55
2018-06-04T01:33:37.212Z,27.00
2018-06-04T01:34:41.972Z,28.30
2018-06-04T01:35:46.275Z,28.90
2018-06-04T01:36:51.272Z,27.37
2018-06-04T01:37:55.494Z,27.93
2018-06-04T01:38:59.736Z,27.35
2018-06-04T01:40:04.380Z,28.30
2018-06-04T01:41:08.591Z,27.98
2018-06-04T01:42:13.141Z,27.02
2018-06-04T01:43:17.388Z,28.15
2018-06-04T01:44:21.673Z,27.32
2018-06-04T01:45:26.201Z,26.35
2018-06-04T01:46:30.439Z,27.45
2018-06-04T01:47:34.701Z,27.52
2018-06-04T01:48:38.943Z,25.95
2018-06-04T01:49:43.202Z,27.93
2018-06-04T01:50:47.617Z,27.20
2018-06-04T01:51:51.943Z,28.15
2018-06-04T01:52:56.404Z,27.37
2018-06-04T01:54:00.944Z,27.32
2018-06-04T01:55:05.341Z,27.67
2018-06-04T01:56:09.901Z,27.82
2018-06-04T01:57:14.822Z,27.13
2018-06-04T01:58:19.066Z,27.47
2018-06-04T01:59:23.346Z,28.10
2018-06-04T02:00:29.346Z,28.67
2018-06-04T02:01:33.695Z,28.05
2018-06-04T02:02:37.983Z,29.00
2018-06-04T02:03:42.234Z,27.35
2018-06-04T02:04:46.651Z,28.47
2018-06-04T02:05:51.107Z,28.45
2018-06-04T02:06:55.343Z,28.55
2018-06-04T02:07:59.594Z,27.97
2018-06-04T02:09:04.274Z,28.40
2018-06-04T02:10:08.602Z,28.30
2018-06-04T02:11:12.686Z,29.12
2018-06-04T02:12:17.053Z,29.20
2018-06-04T02:13:21.349Z,29.45
2018-06-04T02:14:26.042Z,29.42
2018-06-04T02:15:30.689Z,29.52
2018-06-04T02:16:34.932Z,30.35
2018-06-04T02:17:39.311Z,29.53
2018-06-04T02:18:43.978Z,29.30
2018-06-04T02:19:48.247Z,30.35
2018-06-04T02:20:52.518Z,30.20
2018-06-04T02:21:56.827Z,29.55
2018-06-04T02:23:01.469Z,29.70
2018-06-04T02:24:05.972Z,29.98
2018-06-04T02:25:10.575Z,29.18
2018-06-04T02:26:14.826Z,30.00
2018-06-04T02:27:19.053Z,29.70
2018-06-04T02:28:23.775Z,29.35
2018-06-04T02:29:28.746Z,30.90
2018-06-04T02:30:33.217Z,28.70
2018-06-04T02:31:37.615Z,29.72
2018-06-04T02:32:41.627Z,28.30
2018-06-04T02:33:45.879Z,28.43
2018-06-04T02:34:50.125Z,27.00
2018-06-04T02:35:54.376Z,27.60
2018-06-04T02:36:58.663Z,28.12
2018-06-04T02:38:02.900Z,26.20
2018-06-04T02:39:08.474Z,27.17
2018-06-04T02:40:13.013Z,27.00
2018-06-04T02:41:17.547Z,27.20
2018-06-04T02:42:21.839Z,26.75
2018-06-04T02:43:26.177Z,26.68
2018-06-04T02:44:30.435Z,26.45
2018-06-04T02:45:34.693Z,26.30
2018-06-04T02:46:38.931Z,25.62
2018-06-04T02:47:43.217Z,25.15
2018-06-04T02:48:47.699Z,25.80
2018-06-04T02:49:52.064Z,23.00
2018-06-04T02:50:56.231Z,24.90
2018-06-04T02:52:00.549Z,24.27
2018-06-04T02:53:05.102Z,25.90
2018-06-04T02:54:09.342Z,35.03
2018-06-04T02:55:13.623Z,24.83
2018-06-04T02:56:17.838Z,23.98
2018-06-04T02:57:22.062Z,24.45
2018-06-04T02:58:26.596Z,24.82
2018-06-04T02:59:31.218Z,25.88
2018-06-04T03:00:35.470Z,25.00
2018-06-04T03:01:39.734Z,23.90
2018-06-04T03:02:44.004Z,25.72
2018-06-04T03:03:48.468Z,26.12
2018-06-04T03:04:52.906Z,26.62
2018-06-04T03:05:57.204Z,25.90
2018-06-04T03:07:01.772Z,25.17
2018-06-04T03:08:18.845Z,25.92
2018-06-04T03:09:23.213Z,27.67
2018-06-04T03:10:27.529Z,25.80
2018-06-04T03:11:32.328Z,26.50
2018-06-04T03:12:39.462Z,26.07
2018-06-04T03:13:43.977Z,27.77
2018-06-04T03:14:49.453Z,27.73
2018-06-04T03:15:54.265Z,27.35
2018-06-04T03:16:59.961Z,28.02
2018-06-04T03:18:04.250Z,29.50
2018-06-04T03:19:08.647Z,28.75
2018-06-04T03:20:13.033Z,29.23
2018-06-04T03:21:17.315Z,26.45
2018-06-04T03:22:21.612Z,27.02
2018-06-04T03:23:25.876Z,28.85
2018-06-04T03:24:30.183Z,29.45
2018-06-04T03:25:34.425Z,28.25
2018-06-04T03:26:38.805Z,28.20
2018-06-04T03:27:43.060Z,28.52
2018-06-04T03:28:47.319Z,27.67
2018-06-04T03:29:51.881Z,26.75
2018-06-04T03:30:56.237Z,27.32
2018-06-04T03:32:00.547Z,27.75
2018-06-04T03:33:05.003Z,28.35
2018-06-04T03:34:09.270Z,27.25
2018-06-04T03:35:13.514Z,27.20
2018-06-04T03:36:17.876Z,27.15
2018-06-04T03:37:22.202Z,27.48
2018-06-04T03:38:26.656Z,26.95
2018-06-04T03:39:30.943Z,27.67
2018-06-04T03:40:35.273Z,27.50
2018-06-04T03:41:39.854Z,26.57
2018-06-04T03:42:44.109Z,26.85
2018-06-04T03:43:48.363Z,25.90
2018-06-04T03:44:52.636Z,26.75
2018-06-04T03:45:57.274Z,28.62
2018-06-04T03:47:04.929Z,27.20
2018-06-04T03:48:10.730Z,27.22
2018-06-04T03:49:17.209Z,26.33
2018-06-04T03:50:23.561Z,28.32
2018-06-04T03:51:29.623Z,27.22
2018-06-04T03:52:34.586Z,27.80
2018-06-04T03:53:39.395Z,28.75
2018-06-04T03:54:43.847Z,29.20
2018-06-04T03:55:48.265Z,29.80
2018-06-04T03:56:52.501Z,31.40
2018-06-04T03:57:56.773Z,28.90
2018-06-04T03:59:01.047Z,28.27
2018-06-04T04:00:05.820Z,27.60
2018-06-04T04:01:10.107Z,27.20
2018-06-04T04:02:14.362Z,25.70
2018-06-04T04:03:18.623Z,32.67
2018-06-04T04:04:22.908Z,26.20
2018-06-04T04:05:27.575Z,25.50
2018-06-04T04:06:32.169Z,25.20
2018-06-04T04:07:36.724Z,24.43
2018-06-04T04:08:41.102Z,24.57
2018-06-04T04:09:45.393Z,22.95
2018-06-04T04:10:49.741Z,24.32
2018-06-04T04:11:54.103Z,24.18
2018-06-04T04:12:58.674Z,22.97
2018-06-04T04:14:03.008Z,22.77
2018-06-04T04:15:07.512Z,22.62
2018-06-04T04:16:12.044Z,23.05
2018-06-04T04:17:16.664Z,22.50
2018-06-04T04:18:21.014Z,22.77
2018-06-04T04:19:25.301Z,23.83
2018-06-04T04:20:29.793Z,24.07
2018-06-04T04:21:34.123Z,23.95
2018-06-04T04:22:38.798Z,23.92
2018-06-04T04:23:44.627Z,23.57
2018-06-04T04:24:49.346Z,23.30
2018-06-04T04:25:53.673Z,23.60
2018-06-04T04:26:58.922Z,22.37
2018-06-04T04:28:03.686Z,22.48
2018-06-04T04:29:07.972Z,23.35
2018-06-04T04:30:12.329Z,22.15
2018-06-04T04:31:16.774Z,23.03
2018-06-04T04:32:21.060Z,21.82
2018-06-04T04:33:26.634Z,23.45
2018-06-04T04:34:30.876Z,22.17
2018-06-04T04:35:35.191Z,23.62
2018-06-04T04:36:39.454Z,24.25
2018-06-04T04:37:43.802Z,23.20
2018-06-04T04:38:48.342Z,21.68
2018-06-04T04:39:52.586Z,23.35
2018-06-04T04:40:56.823Z,23.38
2018-06-04T04:42:01.064Z,23.00
2018-06-04T04:43:05.297Z,24.02
2018-06-04T04:44:09.541Z,23.77
2018-06-04T04:45:14.155Z,22.17
2018-06-04T04:46:18.387Z,22.87
2018-06-04T04:47:23.124Z,23.10
2018-06-04T04:48:27.387Z,22.37
2018-06-04T04:49:32.360Z,22.10
2018-06-04T04:50:36.729Z,22.10
2018-06-04T04:51:56.445Z,21.97
2018-06-04T04:53:03.530Z,21.87
2018-06-04T04:54:08.426Z,22.87
2018-06-04T04:55:12.710Z,22.30
2018-06-04T04:56:17.040Z,20.57
2018-06-04T04:57:21.734Z,21.37
2018-06-04T04:58:26.042Z,22.37
2018-06-04T04:59:30.355Z,21.57
2018-06-04T05:00:34.580Z,20.27
2018-06-04T05:01:38.915Z,21.80
2018-06-04T05:02:43.482Z,21.75
2018-06-04T05:03:48.531Z,21.10
2018-06-04T05:04:52.992Z,21.60
2018-06-04T05:05:58.026Z,23.52
2018-06-04T05:07:02.682Z,22.55
2018-06-04T05:08:09.441Z,24.07
2018-06-04T05:09:16.438Z,24.47
2018-06-04T05:10:32.847Z,21.95
2018-06-04T05:11:38.259Z,22.02
2018-06-04T05:12:43.143Z,22.77
2018-06-04T05:13:47.715Z,21.73
2018-06-04T05:14:52.024Z,20.85
2018-06-04T05:15:56.448Z,21.97
2018-06-04T05:17:01.160Z,21.27
2018-06-04T05:18:06.403Z,23.02
2018-06-04T05:19:10.663Z,20.97
2018-06-04T05:20:15.273Z,22.17
2018-06-04T05:21:20.026Z,22.00
2018-06-04T05:22:24.749Z,21.23
2018-06-04T05:23:29.204Z,20.77
2018-06-04T05:24:34.843Z,21.50
2018-06-04T05:25:39.127Z,21.25
2018-06-04T05:26:43.462Z,21.13
2018-06-04T05:27:48.118Z,21.30
2018-06-04T05:28:52.716Z,20.15
2018-06-04T05:29:57.190Z,21.80
2018-06-04T05:31:02.259Z,22.90
2018-06-04T05:32:06.525Z,23.55
2018-06-04T05:33:10.806Z,21.20
2018-06-04T05:34:15.888Z,21.93
2018-06-04T05:35:27.893Z,22.62
2018-06-04T05:36:53.536Z,22.75
2018-06-04T05:37:58.557Z,22.27
2018-06-04T05:39:03.505Z,21.70
2018-06-04T05:40:08.021Z,21.12
2018-06-04T05:41:12.827Z,22.15
2018-06-04T05:42:17.592Z,21.48
2018-06-04T05:43:21.866Z,21.57
2018-06-04T05:44:32.603Z,20.50
2018-06-04T05:45:37.340Z,21.57
2018-06-04T05:46:41.956Z,22.17
2018-06-04T05:47:46.261Z,23.12
2018-06-04T05:48:50.517Z,22.77
2018-06-04T05:49:54.878Z,21.77
2018-06-04T05:50:59.371Z,22.67
2018-06-04T05:52:03.657Z,22.37
2018-06-04T05:53:07.916Z,21.45
2018-06-04T05:54:12.844Z,20.80
2018-06-04T05:55:17.268Z,19.82
2018-06-04T05:56:38.081Z,21.68
2018-06-04T05:57:43.109Z,21.60
2018-06-04T05:58:47.746Z,22.55
2018-06-04T05:59:52.589Z,22.85
2018-06-04T06:00:57.097Z,22.73
2018-06-04T06:02:01.510Z,22.30
2018-06-04T06:03:05.743Z,21.70
2018-06-04T06:04:10.040Z,22.25
2018-06-04T06:05:14.318Z,21.37
2018-06-04T06:06:18.623Z,20.60
2018-06-04T06:07:23.183Z,21.57
2018-06-04T06:08:27.706Z,22.93
2018-06-04T06:09:31.958Z,20.75
2018-06-04T06:10:36.304Z,21.25
2018-06-04T06:11:40.565Z,20.90
2018-06-04T06:12:45.141Z,21.10
2018-06-04T06:13:49.823Z,20.72
2018-06-04T06:14:54.100Z,22.50
2018-06-04T06:15:58.633Z,21.40
2018-06-04T06:17:03.018Z,23.07
2018-06-04T06:18:07.318Z,22.17
2018-06-04T06:19:11.586Z,22.25
2018-06-04T06:20:15.912Z,20.00
2018-06-04T06:21:20.344Z,21.97
2018-06-04T06:22:24.754Z,21.02
2018-06-04T06:23:29.065Z,21.42
2018-06-04T06:24:33.403Z,21.00
2018-06-04T06:25:37.749Z,83.07
2018-06-04T06:26:42.060Z,43.85
2018-06-04T06:27:46.359Z,28.33
2018-06-04T06:28:50.663Z,26.82
2018-06-04T06:29:54.957Z,23.25
2018-06-04T06:30:59.633Z,22.62
2018-06-04T06:32:04.015Z,22.60
2018-06-04T06:33:08.279Z,23.00
2018-06-04T06:34:12.565Z,21.82
2018-06-04T06:35:16.813Z,22.80
2018-06-04T06:36:21.104Z,22.47
2018-06-04T06:37:25.351Z,21.65
2018-06-04T06:38:29.658Z,22.45
2018-06-04T06:39:33.912Z,22.17
2018-06-04T06:40:38.189Z,21.55
2018-06-04T06:41:42.521Z,22.27
2018-06-04T06:42:47.034Z,21.05
2018-06-04T06:43:51.307Z,21.60
2018-06-04T06:44:55.580Z,20.95
2018-06-04T06:45:59.844Z,21.12
2018-06-04T06:47:04.945Z,21.07
2018-06-04T06:48:09.548Z,21.90
2018-06-04T06:49:13.833Z,20.95
2018-06-04T06:50:18.092Z,20.50
2018-06-04T06:51:22.432Z,20.50
2018-06-04T06:52:27.192Z,20.02
2018-06-04T06:53:31.452Z,20.50
2018-06-04T06:54:35.774Z,21.23
2018-06-04T06:55:40.056Z,20.32
2018-06-04T06:56:44.344Z,20.12
2018-06-04T06:57:48.638Z,20.08
2018-06-04T06:58:52.977Z,19.00
2018-06-04T06:59:57.397Z,19.40
2018-06-04T07:01:01.645Z,19.30
2018-06-04T07:02:05.977Z,18.57
2018-06-04T07:03:10.394Z,19.52
2018-06-04T07:04:15.142Z,18.63
2018-06-04T07:05:19.412Z,20.37
2018-06-04T07:06:23.735Z,23.12
2018-06-04T07:07:28.060Z,20.68
2018-06-04T07:08:32.348Z,19.42
2018-06-04T07:09:36.749Z,19.70
2018-06-04T07:10:41.007Z,17.98
2018-06-04T07:11:45.267Z,19.00
2018-06-04T07:12:49.525Z,17.80
2018-06-04T07:13:53.849Z,18.20
2018-06-04T07:14:58.838Z,17.87
2018-06-04T07:16:03.472Z,17.30
2018-06-04T07:17:08.210Z,18.17
2018-06-04T07:18:12.923Z,17.03
2018-06-04T07:19:19.640Z,15.88
2018-06-04T07:20:24.202Z,15.60
2018-06-04T07:21:28.792Z,15.90
2018-06-04T07:22:33.431Z,15.48
2018-06-04T07:23:37.710Z,15.60
2018-06-04T07:24:41.995Z,15.38
2018-06-04T07:25:46.272Z,15.08
2018-06-04T07:26:50.755Z,15.10
2018-06-04T07:27:55.063Z,15.40
2018-06-04T07:28:59.346Z,15.30
2018-06-04T07:30:03.735Z,14.10
2018-06-04T07:31:08.017Z,15.55
2018-06-04T07:32:11.899Z,17.12
2018-06-04T07:33:16.713Z,15.28
2018-06-04T07:34:20.995Z,15.93
2018-06-04T07:35:25.327Z,15.80
2018-06-04T07:36:29.774Z,15.35
2018-06-04T07:37:34.158Z,16.07
2018-06-04T07:38:39.156Z,15.98
2018-06-04T07:39:43.711Z,18.98
2018-06-04T07:40:48.027Z,16.30
2018-06-04T07:41:52.522Z,17.07
2018-06-04T07:42:56.805Z,18.90
2018-06-04T07:44:01.195Z,18.50
2018-06-04T07:45:05.497Z,16.60
2018-06-04T07:46:09.786Z,15.30
2018-06-04T07:47:14.174Z,15.10
2018-06-04T07:48:18.547Z,15.10
2018-06-04T07:49:22.855Z,15.23
2018-06-04T07:50:27.173Z,15.45
2018-06-04T07:51:31.474Z,14.95
2018-06-04T07:52:35.820Z,14.13
2018-06-04T07:53:40.105Z,14.80
2018-06-04T07:54:44.392Z,14.53
2018-06-04T07:55:49.049Z,14.43
2018-06-04T07:56:53.416Z,14.23
2018-06-04T07:57:57.770Z,13.13
2018-06-04T07:59:02.112Z,12.80
2018-06-04T08:00:07.302Z,13.10
2018-06-04T08:01:11.625Z,12.65
2018-06-04T08:02:15.915Z,11.95
2018-06-04T08:03:20.360Z,12.47
2018-06-04T08:04:24.979Z,12.55
2018-06-04T08:05:29.291Z,14.58
2018-06-04T08:06:33.744Z,12.93
2018-06-04T08:07:38.096Z,13.38
2018-06-04T08:08:43.350Z,13.90
2018-06-04T08:09:47.634Z,13.55
2018-06-04T08:10:52.417Z,13.70
2018-06-04T08:11:56.719Z,12.50
2018-06-04T08:13:01.305Z,13.75
2018-06-04T08:14:05.679Z,13.18
2018-06-04T08:15:09.960Z,12.63
2018-06-04T08:16:14.461Z,13.60
2018-06-04T08:17:18.897Z,12.10
2018-06-04T08:18:23.323Z,14.00
2018-06-04T08:19:27.599Z,12.37
2018-06-04T08:20:32.013Z,17.67
2018-06-04T08:21:36.590Z,12.40
2018-06-04T08:22:40.874Z,11.48
2018-06-04T08:23:45.423Z,12.03
2018-06-04T08:24:50.140Z,10.90
2018-06-04T08:25:54.429Z,12.23
2018-06-04T08:26:58.693Z,12.10
2018-06-04T08:28:02.996Z,10.98
2018-06-04T08:29:07.299Z,10.18
2018-06-04T08:30:11.918Z,11.40
2018-06-04T08:31:16.224Z,10.60
2018-06-04T08:32:20.501Z,10.80
2018-06-04T08:33:25.392Z,11.18
2018-06-04T08:34:29.741Z,9.75
2018-06-04T08:35:34.028Z,9.80
2018-06-04T08:36:38.475Z,10.10
2018-06-04T08:37:42.866Z,10.55
2018-06-04T08:38:47.232Z,10.65
2018-06-04T08:39:51.565Z,11.05
2018-06-04T08:40:56.200Z,11.43
2018-06-04T08:42:37.142Z,11.75
2018-06-04T08:43:41.519Z,11.10
2018-06-04T08:44:46.163Z,11.20
2018-06-04T08:45:50.505Z,11.30
2018-06-04T08:46:54.959Z,11.22
2018-06-04T08:48:00.996Z,10.85
2018-06-04T08:49:05.384Z,10.03
2018-06-04T08:50:09.725Z,9.95
2018-06-04T08:51:14.074Z,9.83
2018-06-04T08:52:18.550Z,9.70
2018-06-04T08:53:22.851Z,9.95
2018-06-04T08:54:27.376Z,11.95
2018-06-04T08:55:31.697Z,9.53
2018-06-04T08:56:35.967Z,9.13
2018-06-04T08:57:40.582Z,9.55
2018-06-04T08:58:45.033Z,9.58
2018-06-04T08:59:49.401Z,9.88
2018-06-04T09:00:53.699Z,10.70
2018-06-04T09:01:57.862Z,10.68
2018-06-04T09:03:02.211Z,10.93
2018-06-04T09:04:06.686Z,9.75
2018-06-04T09:05:10.963Z,10.40
2018-06-04T09:06:15.191Z,9.80
2018-06-04T09:07:19.501Z,10.48
2018-06-04T09:08:24.061Z,12.93
2018-06-04T09:09:28.582Z,50.30
2018-06-04T09:10:32.938Z,18.80
2018-06-04T09:11:37.241Z,23.67
2018-06-04T09:12:42.036Z,21.87
2018-06-04T09:13:46.637Z,60.88
2018-06-04T09:14:50.961Z,77.00
2018-06-04T09:15:55.264Z,42.83
2018-06-04T09:16:59.565Z,123.85
2018-06-04T09:18:03.862Z,136.28
2018-06-04T09:19:08.404Z,116.77
2018-06-04T09:20:12.746Z,89.85
2018-06-04T09:21:17.026Z,31.55
2018-06-04T09:22:21.547Z,62.27
2018-06-04T09:23:25.860Z,29.92
2018-06-04T09:24:30.231Z,13.43
2018-06-04T09:25:34.588Z,30.62
2018-06-04T09:26:38.917Z,25.62
2018-06-04T09:27:43.292Z,15.32
2018-06-04T09:28:47.606Z,22.17
2018-06-04T09:29:52.324Z,22.73
2018-06-04T09:30:56.693Z,23.22
2018-06-04T09:32:01.014Z,133.23
2018-06-04T09:33:05.372Z,46.63
2018-06-04T09:34:09.759Z,46.02
2018-06-04T09:35:14.382Z,25.27
2018-06-04T09:36:18.676Z,10.70
2018-06-04T09:37:23.073Z,20.85
2018-06-04T09:38:27.609Z,49.75
2018-06-04T09:39:31.908Z,150.20
2018-06-04T09:40:36.265Z,115.72
2018-06-04T09:41:40.704Z,17.37
2018-06-04T09:42:44.861Z,11.50
2018-06-04T09:43:49.204Z,48.42
2018-06-04T09:44:53.767Z,51.50
2018-06-04T09:45:58.945Z,37.38
2018-06-04T09:47:04.614Z,41.75
2018-06-04T09:48:09.113Z,36.50
2018-06-04T09:49:13.600Z,30.60
2018-06-04T09:50:18.062Z,37.95
2018-06-04T09:51:22.649Z,24.70
2018-06-04T09:52:26.898Z,25.27
2018-06-04T09:53:31.572Z,27.33
2018-06-04T09:54:36.192Z,29.67
2018-06-04T09:55:40.452Z,34.88
2018-06-04T09:56:44.716Z,28.77
2018-06-04T09:57:49.030Z,23.80
2018-06-04T09:58:53.241Z,21.35
2018-06-04T09:59:57.585Z,11.93
2018-06-04T10:01:02.084Z,15.13
2018-06-04T10:02:06.699Z,9.25
2018-06-04T10:03:11.644Z,10.78
2018-06-04T10:04:16.822Z,8.80
2018-06-04T10:05:21.303Z,13.22
2018-06-04T10:06:25.682Z,11.65
2018-06-04T10:07:30.344Z,8.65
2018-06-04T10:08:35.154Z,7.17
2018-06-04T10:09:39.536Z,7.50
2018-06-04T10:10:44.203Z,8.90
2018-06-04T10:11:48.642Z,11.25
2018-06-04T10:12:53.109Z,12.63
2018-06-04T10:13:57.653Z,9.10
2018-06-04T10:15:02.251Z,8.15
2018-06-04T10:16:06.735Z,7.47
2018-06-04T10:17:11.135Z,8.90
2018-06-04T10:18:15.905Z,7.55
2018-06-04T10:19:20.397Z,9.78
2018-06-04T10:20:24.764Z,12.40
2018-06-04T10:21:29.075Z,17.55
2018-06-04T10:22:33.542Z,13.83
2018-06-04T10:23:38.585Z,11.38
2018-06-04T10:24:43.288Z,9.20
2018-06-04T10:25:47.601Z,10.63
2018-06-04T10:26:52.147Z,10.65
2018-06-04T10:27:56.865Z,9.03
2018-06-04T10:29:01.538Z,10.78
2018-06-04T10:30:05.955Z,8.30
2018-06-04T10:31:10.370Z,9.33
2018-06-04T10:32:15.348Z,11.45
2018-06-04T10:33:19.928Z,12.10
2018-06-04T10:34:25.019Z,11.65
2018-06-04T10:35:29.632Z,10.72
2018-06-04T10:36:34.014Z,12.20
2018-06-04T10:37:40.605Z,7.65
2018-06-04T10:38:45.138Z,7.50
2018-06-04T10:39:49.759Z,8.83
2018-06-04T10:40:54.052Z,10.40
2018-06-04T10:41:58.365Z,9.45
2018-06-04T10:43:03.049Z,6.72
2018-06-04T10:44:07.542Z,10.20
2018-06-04T10:45:11.913Z,8.63
2018-06-04T10:46:16.383Z,7.30
2018-06-04T10:47:20.815Z,7.92
2018-06-04T10:48:25.960Z,8.00
2018-06-04T10:49:31.429Z,7.78
2018-06-04T10:50:35.764Z,7.83
2018-06-04T10:51:40.089Z,8.13
2018-06-04T10:52:44.772Z,8.05
2018-06-04T10:53:49.368Z,7.20
2018-06-04T10:54:54.076Z,8.18
2018-06-04T10:55:58.625Z,7.90
2018-06-04T10:57:03.653Z,7.72
2018-06-04T10:58:08.392Z,7.17
2018-06-04T10:59:12.911Z,7.00
2018-06-04T11:00:17.478Z,11.97
2018-06-04T11:01:21.856Z,23.10
2018-06-04T11:02:26.174Z,18.70
2018-06-04T11:03:30.484Z,14.28
2018-06-04T11:04:35.405Z,8.93
2018-06-04T11:05:40.909Z,8.15
2018-06-04T11:06:45.192Z,8.85
2018-06-04T11:07:49.551Z,14.60
2018-06-04T11:08:53.864Z,10.45
2018-06-04T11:09:58.376Z,10.00
2018-06-04T11:11:02.819Z,9.63
2018-06-04T11:12:07.176Z,6.22
2018-06-04T11:13:11.488Z,6.53
2018-06-04T11:14:16.339Z,6.12
2018-06-04T11:15:20.971Z,8.13
2018-06-04T11:16:25.260Z,6.90
2018-06-04T11:17:29.775Z,6.37
2018-06-04T11:18:34.218Z,7.70
2018-06-04T11:19:38.612Z,6.30
2018-06-04T11:20:42.971Z,5.95
2018-06-04T11:21:47.280Z,6.40
2018-06-04T11:22:51.622Z,6.25
2018-06-04T11:23:56.025Z,5.90
2018-06-04T11:25:01.095Z,6.10
2018-06-04T11:26:05.301Z,5.80
2018-06-04T11:27:09.670Z,6.62
2018-06-04T11:28:13.936Z,6.25
2018-06-04T11:29:18.400Z,6.10
2018-06-04T11:30:23.136Z,5.83
2018-06-04T11:31:27.388Z,6.15
2018-06-04T11:32:31.562Z,6.10
2018-06-04T11:33:37.119Z,5.30
2018-06-04T11:34:41.504Z,5.03
2018-06-04T11:35:47.844Z,5.70
2018-06-04T11:36:56.969Z,5.90
2018-06-04T11:38:02.389Z,5.33
2018-06-04T11:39:08.509Z,5.65
2018-06-04T11:40:12.876Z,5.77
2018-06-04T11:41:17.783Z,5.30
2018-06-04T11:42:23.135Z,5.65
2018-06-04T11:43:29.284Z,5.95
2018-06-04T11:44:33.516Z,6.03
2018-06-04T11:45:38.456Z,6.62
2018-06-04T11:46:43.062Z,6.65
2018-06-04T11:47:47.691Z,48.28
2018-06-04T11:48:52.817Z,9.43
2018-06-04T11:49:57.892Z,6.25
2018-06-04T11:51:02.416Z,6.40
2018-06-04T11:52:06.975Z,6.15
2018-06-04T11:53:11.773Z,6.40
2018-06-04T11:54:16.083Z,5.80
2018-06-04T11:55:20.661Z,6.45
2018-06-04T11:56:25.452Z,5.72
2018-06-04T11:57:31.091Z,6.40
2018-06-04T11:58:37.658Z,6.05
2018-06-04T11:59:43.214Z,5.55
2018-06-04T12:00:48.272Z,11.15
2018-06-04T12:01:52.511Z,6.65
2018-06-04T12:02:56.950Z,7.28
2018-06-04T12:04:02.264Z,7.30
2018-06-04T12:05:07.789Z,6.78
2018-06-04T12:06:12.155Z,5.67
2018-06-04T12:07:17.617Z,5.40
2018-06-04T12:08:21.932Z,6.45
2018-06-04T12:09:26.604Z,6.20
2018-06-04T12:10:31.992Z,6.90
2018-06-04T12:11:36.955Z,7.53
2018-06-04T12:12:41.331Z,9.50
2018-06-04T12:13:45.807Z,9.05
2018-06-04T12:14:50.412Z,8.98
2018-06-04T12:15:54.885Z,6.12
2018-06-04T12:16:59.153Z,8.00
2018-06-04T12:18:03.727Z,8.40
2018-06-04T12:19:08.021Z,6.97
2018-06-04T12:20:13.411Z,6.60
2018-06-04T12:21:17.663Z,5.58
2018-06-04T12:22:22.000Z,5.55
2018-06-04T12:23:26.269Z,5.70
2018-06-04T12:24:30.874Z,5.90
2018-06-04T12:26:06.294Z,5.72
2018-06-04T12:27:12.720Z,5.78
2018-06-04T12:28:18.471Z,5.53
2018-06-04T12:29:23.568Z,5.22
2018-06-04T12:30:28.893Z,7.67
2018-06-04T12:31:33.310Z,6.27
2018-06-04T12:32:37.825Z,5.60
2018-06-04T12:33:44.152Z,7.17
2018-06-04T12:34:49.552Z,6.67
2018-06-04T12:35:54.292Z,6.47
2018-06-04T12:36:58.700Z,5.90
2018-06-04T12:38:04.091Z,5.80
2018-06-04T12:39:11.310Z,6.10
2018-06-04T12:40:15.656Z,5.90
2018-06-04T12:41:21.947Z,5.60
2018-06-04T12:42:28.193Z,6.07
2018-06-04T12:43:33.680Z,5.17
2018-06-04T12:44:40.695Z,4.78
2018-06-04T12:45:45.169Z,4.90
2018-06-04T12:46:49.639Z,5.23
2018-06-04T12:47:53.884Z,5.30
2018-06-04T12:48:59.062Z,6.80
2018-06-04T12:50:04.511Z,5.42
2018-06-04T12:51:17.365Z,6.95
2018-06-04T12:52:22.134Z,6.80
2018-06-04T12:53:27.069Z,6.60
2018-06-04T12:54:31.335Z,7.10
2018-06-04T12:55:36.265Z,5.50
2018-06-04T12:56:41.246Z,9.75
2018-06-04T12:57:46.299Z,7.33
2018-06-04T12:58:54.560Z,7.70
2018-06-04T12:59:59.162Z,5.62
2018-06-04T13:01:04.336Z,5.55
2018-06-04T13:02:12.103Z,5.83
2018-06-04T13:03:16.545Z,5.15
2018-06-04T13:04:21.477Z,5.92
2018-06-04T13:05:26.606Z,5.35
2018-06-04T13:06:31.187Z,5.10
2018-06-04T13:07:35.444Z,5.10
2018-06-04T13:08:39.694Z,5.10
2018-06-04T13:09:44.856Z,4.60
2018-06-04T13:10:49.133Z,5.40
2018-06-04T13:11:53.594Z,4.92
2018-06-04T13:12:59.497Z,5.05
2018-06-04T13:14:04.668Z,4.95
2018-06-04T13:15:09.647Z,5.20
2018-06-04T13:16:14.613Z,6.65
2018-06-04T13:17:19.256Z,8.38
2018-06-04T13:18:25.558Z,9.50
2018-06-04T13:19:29.838Z,9.10
2018-06-04T13:20:34.540Z,11.03
2018-06-04T13:21:39.585Z,10.50
2018-06-04T13:22:44.093Z,10.45
2018-06-04T13:23:48.325Z,11.25
2018-06-04T13:24:54.282Z,16.45
2018-06-04T13:25:59.344Z,12.60
2018-06-04T13:27:05.547Z,7.20
2018-06-04T13:28:11.861Z,11.22
2018-06-04T13:29:18.508Z,20.43
2018-06-04T13:30:22.761Z,20.25
2018-06-04T13:31:27.308Z,12.50
2018-06-04T13:32:33.925Z,10.98
2018-06-04T13:33:38.682Z,16.47
2018-06-04T13:34:43.223Z,19.30
2018-06-04T13:35:47.821Z,10.98
2018-06-04T13:36:54.288Z,8.45
2018-06-04T13:37:58.812Z,10.95
2018-06-04T13:39:03.203Z,8.80
2018-06-04T13:40:07.813Z,7.15
2018-06-04T13:41:13.083Z,7.92
2018-06-04T13:42:22.860Z,8.25
2018-06-04T13:43:27.477Z,5.67
2018-06-04T13:44:33.250Z,5.75
2018-06-04T13:45:42.650Z,5.30
2018-06-04T13:46:48.302Z,5.20
2018-06-04T13:47:52.867Z,5.40
2018-06-04T13:48:57.180Z,4.75
2018-06-04T13:50:02.491Z,4.65
2018-06-04T13:51:09.534Z,5.47
2018-06-04T13:52:13.807Z,8.48
2018-06-04T13:53:18.235Z,8.13
2018-06-04T13:54:22.801Z,8.63
2018-06-04T13:55:27.049Z,5.53
2018-06-04T13:56:31.294Z,8.85
2018-06-04T13:57:36.264Z,11.00
2018-06-04T13:58:41.567Z,10.78
2018-06-04T13:59:49.535Z,7.15
2018-06-04T14:00:54.770Z,9.28